createdAt,value
2024-01-09T00:00:41.816Z,36.37
2024-01-09T00:01:41.800Z,36.40
2024-01-09T00:02:41.794Z,36.41
2024-01-09T00:03:41.828Z,36.42
2024-01-09T00:04:46.778Z,36.42
2024-01-09T00:05:41.869Z,36.42
2024-01-09T00:06:41.791Z,36.40
2024-01-09T00:07:41.759Z,36.38
2024-01-09T00:08:41.835Z,36.39
2024-01-09T00:09:46.735Z,36.37
2024-01-09T00:10:41.721Z,36.42
2024-01-09T00:11:41.704Z,36.33
2024-01-09T00:12:41.715Z,36.36
2024-01-09T00:13:41.695Z,36.33
2024-01-09T00:14:41.721Z,36.38
2024-01-09T00:15:41.682Z,36.42
2024-01-09T00:16:41.666Z,36.39
2024-01-09T00:17:41.717Z,36.37
2024-01-09T00:18:41.724Z,36.36
2024-01-09T00:19:41.744Z,36.36
2024-01-09T00:20:41.636Z,36.39
2024-01-09T00:21:41.624Z,36.38
2024-01-09T00:22:41.600Z,36.37
2024-01-09T00:23:41.664Z,36.36
2024-01-09T00:24:41.592Z,36.34
2024-01-09T00:25:41.601Z,36.33
2024-01-09T00:26:41.594Z,36.37
2024-01-09T00:27:41.613Z,36.36
2024-01-09T00:28:41.587Z,36.32
2024-01-09T00:29:41.593Z,36.38
2024-01-09T00:30:41.569Z,36.38
2024-01-09T00:31:41.536Z,36.38
2024-01-09T00:32:41.552Z,36.33
2024-01-09T00:33:41.645Z,36.25
2024-01-09T00:34:41.563Z,36.35
2024-01-09T00:35:41.539Z,36.26
2024-01-09T00:36:41.493Z,36.33
2024-01-09T00:37:41.482Z,36.36
2024-01-09T00:38:41.510Z,36.34
2024-01-09T00:39:41.562Z,36.34
2024-01-09T00:40:41.508Z,36.33
2024-01-09T00:41:41.479Z,36.35
2024-01-09T00:42:41.425Z,36.30
2024-01-09T00:43:41.434Z,36.33
2024-01-09T00:44:41.442Z,36.32
2024-01-09T00:45:41.405Z,36.36
2024-01-09T00:46:41.437Z,36.34
2024-01-09T00:47:41.462Z,36.37
2024-01-09T00:48:41.582Z,36.26
2024-01-09T00:49:41.494Z,36.30
2024-01-09T00:50:41.385Z,36.36
2024-01-09T00:51:41.366Z,36.34
2024-01-09T00:52:41.351Z,36.37
2024-01-09T00:53:41.400Z,36.32
2024-01-09T00:54:41.329Z,36.26
2024-01-09T00:55:41.320Z,36.29
2024-01-09T00:56:41.358Z,36.32
2024-01-09T00:57:41.305Z,36.32
2024-01-09T00:58:41.318Z,36.34
2024-01-09T00:59:41.295Z,36.36
2024-01-09T01:00:41.272Z,36.30
2024-01-09T01:01:42.105Z,36.27
2024-01-09T01:02:41.285Z,36.32
2024-01-09T01:03:41.290Z,36.33
2024-01-09T01:04:41.285Z,36.33
2024-01-09T01:05:41.249Z,36.32
2024-01-09T01:06:41.225Z,36.32
2024-01-09T01:07:41.210Z,36.33
2024-01-09T01:08:41.221Z,36.30
2024-01-09T01:09:41.189Z,36.27
2024-01-09T01:10:41.180Z,36.32
2024-01-09T01:11:41.222Z,36.27
2024-01-09T01:12:41.173Z,36.29
2024-01-09T01:13:41.163Z,36.26
2024-01-09T01:14:41.204Z,36.25
2024-01-09T01:15:41.149Z,36.26
2024-01-09T01:16:41.120Z,36.30
2024-01-09T01:17:41.290Z,36.22
2024-01-09T01:18:41.151Z,36.28
2024-01-09T01:19:41.137Z,36.25
2024-01-09T01:20:41.138Z,36.26
2024-01-09T01:21:41.096Z,36.29
2024-01-09T01:22:41.083Z,36.25
2024-01-09T01:23:41.122Z,36.26
2024-01-09T01:24:41.052Z,36.29
2024-01-09T01:25:41.047Z,36.26
2024-01-09T01:26:41.102Z,36.26
2024-01-09T01:27:41.036Z,36.25
2024-01-09T01:28:41.040Z,36.23
2024-01-09T01:29:41.066Z,36.29
2024-01-09T01:30:41.062Z,36.22
2024-01-09T01:31:40.991Z,36.23
2024-01-09T01:32:41.098Z,36.25
2024-01-09T01:33:41.184Z,36.28
2024-01-09T01:34:41.068Z,36.22
2024-01-09T01:35:40.976Z,36.25
2024-01-09T01:36:40.941Z,36.25
2024-01-09T01:37:40.937Z,36.18
2024-01-09T01:38:40.953Z,36.27
2024-01-09T01:39:40.953Z,36.25
2024-01-09T01:40:40.918Z,36.27
2024-01-09T01:41:40.920Z,36.19
2024-01-09T01:42:40.894Z,36.30
2024-01-09T01:43:40.899Z,36.25
2024-01-09T01:44:40.928Z,36.23
2024-01-09T01:45:40.875Z,36.27
2024-01-09T01:46:40.875Z,36.24
2024-01-09T01:47:40.972Z,36.15
2024-01-09T01:48:40.952Z,36.22
2024-01-09T01:49:40.848Z,36.25
2024-01-09T01:50:40.864Z,36.19
2024-01-09T01:51:40.823Z,36.21
2024-01-09T01:52:40.820Z,36.21
2024-01-09T01:53:40.830Z,36.17
2024-01-09T01:54:45.823Z,36.18
2024-01-09T01:55:40.795Z,36.15
2024-01-09T01:56:40.849Z,36.15
2024-01-09T01:57:40.779Z,36.21
2024-01-09T01:58:40.765Z,36.19
2024-01-09T01:59:45.838Z,36.18
2024-01-09T02:00:40.753Z,36.21
2024-01-09T02:01:40.736Z,36.21
2024-01-09T02:02:40.733Z,36.15
2024-01-09T02:03:40.755Z,36.19
2024-01-09T02:04:40.738Z,36.16
2024-01-09T02:05:40.819Z,36.18
2024-01-09T02:06:40.682Z,36.23
2024-01-09T02:07:40.693Z,36.22
2024-01-09T02:08:40.738Z,36.20
2024-01-09T02:09:40.664Z,36.20
2024-01-09T02:10:40.663Z,36.19
2024-01-09T02:11:40.691Z,36.21
2024-01-09T02:12:40.630Z,36.14
2024-01-09T02:13:40.629Z,36.16
2024-01-09T02:14:40.683Z,36.15
2024-01-09T02:15:40.612Z,36.20
2024-01-09T02:16:40.613Z,36.19
2024-01-09T02:17:40.683Z,36.16
2024-01-09T02:18:40.626Z,36.18
2024-01-09T02:19:40.745Z,36.14
2024-01-09T02:20:40.567Z,36.22
2024-01-09T02:21:40.568Z,36.09
2024-01-09T02:22:40.545Z,36.14
2024-01-09T02:23:40.610Z,36.21
2024-01-09T02:24:50.593Z,36.14
2024-01-09T02:25:40.561Z,36.13
2024-01-09T02:26:54.059Z,36.11
2024-01-09T02:27:41.542Z,36.12
2024-01-09T02:28:40.489Z,36.12
2024-01-09T02:29:40.570Z,36.15
2024-01-09T02:30:40.480Z,36.14
2024-01-09T02:31:40.481Z,36.12
2024-01-09T02:32:40.591Z,36.15
2024-01-09T02:33:40.579Z,36.09
2024-01-09T02:34:40.503Z,36.21
2024-01-09T02:35:40.468Z,36.09
2024-01-09T02:36:40.429Z,36.09
2024-01-09T02:37:40.419Z,36.16
2024-01-09T02:38:40.433Z,36.05
2024-01-09T02:39:40.409Z,36.11
2024-01-09T02:40:40.400Z,36.04
2024-01-09T02:41:40.399Z,36.06
2024-01-09T02:42:40.381Z,36.18
2024-01-09T02:43:40.368Z,36.11
2024-01-09T02:44:40.452Z,36.16
2024-01-09T02:45:40.357Z,36.11
2024-01-09T02:46:40.357Z,36.08
2024-01-09T02:47:40.376Z,36.09
2024-01-09T02:48:40.395Z,36.08
2024-01-09T02:49:40.432Z,36.11
2024-01-09T02:50:40.364Z,36.15
2024-01-09T02:51:40.307Z,36.10
2024-01-09T02:52:40.285Z,36.07
2024-01-09T02:53:40.358Z,36.07
2024-01-09T02:54:40.275Z,36.10
2024-01-09T02:55:40.273Z,36.15
2024-01-09T02:56:40.314Z,36.04
2024-01-09T02:57:40.267Z,36.07
2024-01-09T02:58:40.229Z,36.07
2024-01-09T02:59:40.305Z,36.07
2024-01-09T03:00:40.270Z,35.95
2024-01-09T03:01:40.216Z,35.98
2024-01-09T03:02:40.306Z,36.05
2024-01-09T03:03:40.246Z,36.01
2024-01-09T03:04:40.174Z,35.90
2024-01-09T03:05:40.335Z,36.06
2024-01-09T03:06:40.257Z,36.04
2024-01-09T03:07:40.342Z,35.94
2024-01-09T03:08:40.232Z,36.02
2024-01-09T03:09:40.142Z,36.09
2024-01-09T03:10:40.166Z,36.04
2024-01-09T03:11:40.161Z,35.96
2024-01-09T03:12:40.111Z,36.04
2024-01-09T03:13:40.106Z,36.05
2024-01-09T03:14:40.150Z,35.94
2024-01-09T03:15:40.089Z,35.95
2024-01-09T03:16:40.081Z,35.98
2024-01-09T03:17:40.135Z,36.10
2024-01-09T03:18:40.147Z,36.06
2024-01-09T03:19:40.070Z,36.07
2024-01-09T03:20:40.053Z,35.98
2024-01-09T03:21:40.047Z,36.16
2024-01-09T03:22:40.052Z,36.09
2024-01-09T03:23:40.091Z,36.05
2024-01-09T03:24:40.011Z,36.03
2024-01-09T03:25:40.009Z,35.99
2024-01-09T03:26:39.989Z,36.01
2024-01-09T03:27:39.992Z,36.02
2024-01-09T03:28:39.970Z,36.07
2024-01-09T03:29:39.995Z,36.02
2024-01-09T03:30:40.031Z,35.99
2024-01-09T03:31:39.954Z,36.06
2024-01-09T03:32:40.035Z,36.09
2024-01-09T03:33:39.986Z,36.02
2024-01-09T03:34:41.912Z,35.82
2024-01-09T03:35:39.948Z,35.91
2024-01-09T03:36:39.909Z,35.90
2024-01-09T03:37:39.887Z,35.95
2024-01-09T03:38:39.886Z,35.95
2024-01-09T03:39:39.883Z,35.96
2024-01-09T03:40:39.872Z,35.98
2024-01-09T03:41:50.062Z,35.91
2024-01-09T03:42:39.864Z,35.87
2024-01-09T03:43:39.835Z,35.94
2024-01-09T03:44:39.851Z,35.84
2024-01-09T03:45:39.847Z,35.90
2024-01-09T03:46:39.821Z,35.84
2024-01-09T03:47:39.860Z,35.84
2024-01-09T03:48:39.905Z,35.80
2024-01-09T03:49:39.809Z,35.87
2024-01-09T03:50:39.796Z,35.86
2024-01-09T03:51:39.766Z,35.83
2024-01-09T03:52:39.790Z,35.82
2024-01-09T03:53:39.869Z,35.86
2024-01-09T03:54:39.762Z,35.83
2024-01-09T03:55:39.786Z,35.76
2024-01-09T03:56:39.845Z,35.77
2024-01-09T03:57:39.717Z,35.76
2024-01-09T03:58:39.724Z,35.73
2024-01-09T03:59:39.711Z,35.80
2024-01-09T04:00:39.734Z,35.68
2024-01-09T04:01:39.691Z,35.76
2024-01-09T04:02:39.717Z,35.85
2024-01-09T04:03:39.725Z,35.84
2024-01-09T04:04:39.715Z,35.76
2024-01-09T04:05:39.730Z,35.77
2024-01-09T04:06:39.662Z,35.75
2024-01-09T04:07:39.659Z,35.76
2024-01-09T04:08:39.666Z,35.85
2024-01-09T04:09:39.619Z,35.76
2024-01-09T04:10:39.605Z,35.78
2024-01-09T04:11:39.686Z,35.80
2024-01-09T04:12:39.587Z,35.81
2024-01-09T04:13:39.584Z,35.82
2024-01-09T04:14:39.580Z,35.76
2024-01-09T04:15:39.569Z,35.71
2024-01-09T04:16:39.557Z,35.81
2024-01-09T04:17:39.629Z,35.87
2024-01-09T04:18:39.625Z,35.78
2024-01-09T04:19:39.610Z,35.74
2024-01-09T04:20:39.561Z,35.78
2024-01-09T04:21:39.506Z,35.78
2024-01-09T04:22:39.515Z,35.77
2024-01-09T04:23:39.529Z,35.86
2024-01-09T04:24:39.501Z,35.59
2024-01-09T04:25:39.480Z,35.70
2024-01-09T04:26:39.552Z,35.68
2024-01-09T04:27:39.452Z,35.83
2024-01-09T04:28:39.475Z,35.70
2024-01-09T04:29:39.465Z,35.83
2024-01-09T04:30:39.463Z,35.87
2024-01-09T04:31:39.412Z,35.93
2024-01-09T04:32:39.542Z,35.91
2024-01-09T04:33:39.551Z,35.90
2024-01-09T04:34:39.448Z,35.78
2024-01-09T04:35:39.425Z,35.72
2024-01-09T04:36:39.401Z,35.89
2024-01-09T04:37:39.397Z,35.90
2024-01-09T04:38:39.392Z,35.93
2024-01-09T04:39:40.106Z,35.79
2024-01-09T04:40:39.336Z,35.77
2024-01-09T04:41:39.367Z,35.76
2024-01-09T04:42:39.321Z,35.71
2024-01-09T04:43:39.319Z,35.73
2024-01-09T04:44:39.330Z,35.71
2024-01-09T04:45:39.353Z,35.80
2024-01-09T04:46:39.308Z,35.79
2024-01-09T04:47:39.397Z,35.67
2024-01-09T04:48:39.421Z,35.60
2024-01-09T04:49:39.293Z,35.70
2024-01-09T04:50:39.294Z,35.74
2024-01-09T04:51:39.239Z,35.73
2024-01-09T04:52:39.238Z,35.71
2024-01-09T04:53:39.302Z,35.56
2024-01-09T04:54:39.230Z,35.60
2024-01-09T04:55:39.201Z,35.64
2024-01-09T04:56:39.209Z,35.62
2024-01-09T04:57:39.182Z,35.64
2024-01-09T04:58:39.178Z,35.82
2024-01-09T04:59:39.190Z,35.72
2024-01-09T05:00:39.202Z,35.68
2024-01-09T05:01:39.156Z,35.70
2024-01-09T05:02:39.191Z,35.61
2024-01-09T05:03:39.174Z,35.66
2024-01-09T05:04:39.133Z,35.64
2024-01-09T05:05:39.180Z,35.66
2024-01-09T05:06:39.181Z,35.44
2024-01-09T05:07:39.116Z,35.40
2024-01-09T05:08:39.167Z,35.56
2024-01-09T05:09:39.119Z,35.56
2024-01-09T05:10:39.071Z,35.65
2024-01-09T05:11:39.133Z,35.68
2024-01-09T05:12:39.065Z,35.70
2024-01-09T05:13:39.041Z,35.67
2024-01-09T05:14:39.114Z,35.71
2024-01-09T05:15:39.031Z,35.67
2024-01-09T05:16:39.029Z,35.70
2024-01-09T05:17:39.078Z,35.72
2024-01-09T05:18:39.273Z,35.64
2024-01-09T05:19:39.026Z,35.59
2024-01-09T05:20:39.042Z,35.72
2024-01-09T05:21:38.965Z,35.82
2024-01-09T05:22:38.963Z,35.76
2024-01-09T05:23:39.003Z,35.85
2024-01-09T05:24:38.952Z,35.81
2024-01-09T05:25:38.970Z,35.84
2024-01-09T05:26:38.945Z,35.73
2024-01-09T05:27:38.922Z,35.78
2024-01-09T05:28:38.911Z,35.45
2024-01-09T05:29:38.940Z,35.53
2024-01-09T05:30:38.934Z,35.64
2024-01-09T05:31:38.891Z,35.74
2024-01-09T05:32:38.973Z,35.85
2024-01-09T05:33:38.945Z,35.66
2024-01-09T05:34:38.862Z,35.81
2024-01-09T05:35:38.864Z,35.73
2024-01-09T05:36:38.850Z,35.74
2024-01-09T05:37:38.834Z,35.77
2024-01-09T05:38:38.858Z,35.75
2024-01-09T05:39:38.815Z,35.78
2024-01-09T05:40:38.827Z,35.66
2024-01-09T05:41:38.837Z,35.72
2024-01-09T05:42:38.803Z,35.74
2024-01-09T05:43:38.778Z,35.75
2024-01-09T05:44:38.835Z,35.66
2024-01-09T05:45:38.772Z,35.77
2024-01-09T05:46:38.776Z,35.71
2024-01-09T05:47:38.881Z,35.78
2024-01-09T05:48:38.835Z,35.53
2024-01-09T05:49:38.869Z,35.69
2024-01-09T05:50:43.770Z,35.78
2024-01-09T05:51:38.707Z,35.71
2024-01-09T05:52:38.708Z,35.73
2024-01-09T05:53:38.733Z,35.70
2024-01-09T05:54:38.704Z,35.76
2024-01-09T05:55:38.724Z,35.76
2024-01-09T05:56:38.722Z,35.77
2024-01-09T05:57:38.664Z,35.72
2024-01-09T05:58:38.657Z,35.75
2024-01-09T05:59:38.711Z,35.63
2024-01-09T06:00:38.659Z,35.70
2024-01-09T06:01:38.625Z,35.74
2024-01-09T06:02:38.650Z,35.66
2024-01-09T06:03:38.623Z,35.62
2024-01-09T06:04:38.621Z,35.64
2024-01-09T06:05:38.651Z,35.64
2024-01-09T06:06:38.651Z,35.68
2024-01-09T06:07:38.576Z,35.59
2024-01-09T06:08:38.601Z,35.63
2024-01-09T06:09:38.555Z,35.62
2024-01-09T06:10:38.554Z,35.49
2024-01-09T06:11:38.597Z,35.57
2024-01-09T06:12:39.157Z,35.56
2024-01-09T06:13:38.530Z,35.59
2024-01-09T06:14:38.539Z,35.42
2024-01-09T06:15:38.515Z,35.55
2024-01-09T06:16:38.496Z,35.39
2024-01-09T06:17:38.628Z,35.43
2024-01-09T06:18:38.628Z,35.31
2024-01-09T06:19:38.519Z,35.50
2024-01-09T06:20:38.573Z,35.58
2024-01-09T06:21:38.475Z,35.42
2024-01-09T06:22:38.456Z,35.55
2024-01-09T06:23:38.478Z,35.55
2024-01-09T06:24:38.432Z,35.57
2024-01-09T06:25:38.431Z,35.39
2024-01-09T06:26:38.460Z,35.47
2024-01-09T06:27:38.393Z,35.52
2024-01-09T06:28:38.392Z,35.48
2024-01-09T06:29:38.403Z,35.40
2024-01-09T06:30:38.383Z,35.43
2024-01-09T06:31:38.362Z,35.43
2024-01-09T06:32:38.485Z,35.44
2024-01-09T06:33:38.465Z,35.42
2024-01-09T06:34:38.488Z,35.46
2024-01-09T06:35:38.377Z,35.44
2024-01-09T06:36:38.328Z,35.39
2024-01-09T06:37:38.314Z,35.30
2024-01-09T06:38:38.337Z,35.33
2024-01-09T06:39:38.285Z,35.28
2024-01-09T06:40:38.290Z,35.30
2024-01-09T06:41:38.320Z,35.31
2024-01-09T06:42:38.310Z,35.35
2024-01-09T06:43:38.257Z,35.23
2024-01-09T06:44:39.831Z,35.24
2024-01-09T06:45:38.243Z,35.36
2024-01-09T06:46:38.248Z,35.40
2024-01-09T06:47:38.281Z,35.47
2024-01-09T06:48:38.294Z,35.39
2024-01-09T06:49:38.317Z,35.37
2024-01-09T06:50:38.712Z,35.36
2024-01-09T06:51:38.257Z,35.36
2024-01-09T06:52:38.185Z,35.23
2024-01-09T06:53:38.195Z,35.41
2024-01-09T06:54:38.162Z,35.48
2024-01-09T06:55:38.146Z,35.32
2024-01-09T06:56:38.190Z,35.41
2024-01-09T06:57:38.129Z,35.41
2024-01-09T06:58:38.134Z,35.44
2024-01-09T06:59:38.169Z,35.44
2024-01-09T07:00:38.131Z,35.45
2024-01-09T07:01:38.095Z,35.41
2024-01-09T07:02:38.127Z,35.17
2024-01-09T07:03:38.106Z,35.38
2024-01-09T07:04:38.226Z,35.41
2024-01-09T07:05:38.161Z,35.44
2024-01-09T07:06:38.118Z,35.45
2024-01-09T07:07:45.501Z,35.45
2024-01-09T07:08:39.080Z,35.48
2024-01-09T07:09:38.044Z,35.51
2024-01-09T07:10:38.053Z,35.39
2024-01-09T07:11:38.047Z,35.38
2024-01-09T07:12:38.023Z,35.39
2024-01-09T07:13:38.011Z,35.48
2024-01-09T07:14:38.202Z,35.07
2024-01-09T07:15:38.180Z,34.91
2024-01-09T07:16:39.621Z,35.12
2024-01-09T07:17:38.096Z,35.31
2024-01-09T07:18:38.129Z,35.42
2024-01-09T07:19:38.026Z,35.33
2024-01-09T07:20:37.993Z,35.34
2024-01-09T07:21:37.924Z,35.30
2024-01-09T07:22:37.930Z,35.47
2024-01-09T07:23:37.928Z,35.46
2024-01-09T07:24:37.905Z,35.42
2024-01-09T07:25:37.908Z,35.42
2024-01-09T07:26:37.951Z,35.43
2024-01-09T07:27:37.870Z,35.40
2024-01-09T07:28:37.866Z,35.39
2024-01-09T07:29:37.896Z,35.27
2024-01-09T07:30:37.899Z,35.24
2024-01-09T07:31:37.824Z,35.09
2024-01-09T07:32:37.917Z,34.96
2024-01-09T07:33:38.269Z,34.99
2024-01-09T07:34:37.844Z,35.23
2024-01-09T07:35:37.839Z,35.38
2024-01-09T07:36:37.810Z,35.31
2024-01-09T07:37:37.776Z,35.17
2024-01-09T07:38:37.785Z,35.36
2024-01-09T07:39:37.764Z,35.34
2024-01-09T07:40:42.790Z,35.39
2024-01-09T07:41:37.763Z,35.35
2024-01-09T07:42:43.218Z,35.29
2024-01-09T07:43:38.744Z,35.24
2024-01-09T07:44:37.778Z,35.35
2024-01-09T07:45:37.724Z,35.31
2024-01-09T07:46:37.716Z,35.30
2024-01-09T07:47:37.728Z,35.27
2024-01-09T07:48:37.796Z,35.12
2024-01-09T07:49:37.736Z,35.17
2024-01-09T07:50:37.696Z,35.32
2024-01-09T07:51:37.689Z,35.32
2024-01-09T07:52:37.656Z,35.31
2024-01-09T07:53:37.662Z,35.19
2024-01-09T07:54:37.635Z,35.17
2024-01-09T07:55:37.634Z,35.00
2024-01-09T07:56:37.643Z,35.26
2024-01-09T07:57:37.611Z,35.28
2024-01-09T07:58:37.605Z,35.30
2024-01-09T07:59:37.633Z,35.33
2024-01-09T08:00:37.614Z,35.21
2024-01-09T08:01:37.588Z,34.98
2024-01-09T08:02:37.578Z,35.22
2024-01-09T08:03:37.600Z,35.27
2024-01-09T08:04:37.547Z,35.32
2024-01-09T08:05:37.719Z,35.28
2024-01-09T08:06:37.586Z,35.32
2024-01-09T08:07:37.530Z,35.33
2024-01-09T08:08:37.543Z,35.32
2024-01-09T08:09:37.519Z,35.22
2024-01-09T08:10:37.488Z,35.28
2024-01-09T08:11:37.527Z,35.08
2024-01-09T08:12:37.485Z,34.67
2024-01-09T08:13:37.477Z,35.22
2024-01-09T08:14:37.488Z,35.27
2024-01-09T08:15:37.458Z,35.28
2024-01-09T08:16:37.436Z,35.22
2024-01-09T08:17:37.503Z,35.19
2024-01-09T08:18:37.586Z,35.27
2024-01-09T08:19:37.466Z,34.98
2024-01-09T08:20:37.474Z,35.08
2024-01-09T08:21:39.251Z,35.19
2024-01-09T08:22:37.386Z,35.04
2024-01-09T08:23:37.400Z,35.11
2024-01-09T08:24:37.364Z,35.17
2024-01-09T08:25:37.389Z,35.17
2024-01-09T08:26:37.360Z,35.12
2024-01-09T08:27:37.349Z,35.08
2024-01-09T08:28:37.334Z,35.17
2024-01-09T08:29:37.357Z,34.63
2024-01-09T08:30:37.328Z,34.87
2024-01-09T08:31:37.312Z,34.70
2024-01-09T08:32:37.377Z,34.81
2024-01-09T08:33:37.413Z,34.94
2024-01-09T08:34:37.356Z,35.08
2024-01-09T08:35:37.302Z,35.05
2024-01-09T08:36:37.414Z,35.03
2024-01-09T08:37:37.259Z,35.08
2024-01-09T08:38:37.335Z,34.98
2024-01-09T08:39:37.237Z,35.05
2024-01-09T08:40:39.689Z,34.71
2024-01-09T08:41:37.314Z,35.03
2024-01-09T08:42:37.207Z,34.83
2024-01-09T08:43:37.203Z,34.90
2024-01-09T08:44:37.284Z,34.86
2024-01-09T08:45:37.210Z,35.04
2024-01-09T08:46:37.178Z,35.02
2024-01-09T08:47:37.334Z,34.94
2024-01-09T08:48:37.346Z,34.97
2024-01-09T08:49:37.204Z,34.96
2024-01-09T08:50:37.153Z,35.04
2024-01-09T08:51:37.141Z,34.92
2024-01-09T08:52:37.151Z,35.03
2024-01-09T08:53:37.163Z,34.98
2024-01-09T08:54:37.098Z,34.85
2024-01-09T08:55:37.118Z,35.00
2024-01-09T08:56:37.158Z,35.05
2024-01-09T08:57:37.089Z,35.00
2024-01-09T08:58:37.100Z,34.97
2024-01-09T08:59:37.096Z,35.03
2024-01-09T09:00:37.082Z,34.84
2024-01-09T09:01:37.127Z,34.63
2024-01-09T09:02:37.064Z,34.85
2024-01-09T09:03:37.089Z,34.92
2024-01-09T09:04:37.046Z,34.81
2024-01-09T09:05:37.943Z,34.85
2024-01-09T09:06:37.250Z,34.93
2024-01-09T09:07:37.060Z,34.86
2024-01-09T09:08:37.017Z,34.86
2024-01-09T09:09:37.010Z,34.82
2024-01-09T09:10:36.973Z,34.77
2024-01-09T09:11:37.017Z,34.71
2024-01-09T09:12:36.947Z,34.40
2024-01-09T09:13:36.939Z,34.42
2024-01-09T09:14:36.976Z,34.57
2024-01-09T09:15:36.924Z,34.46
2024-01-09T09:16:36.910Z,34.52
2024-01-09T09:17:37.036Z,34.52
2024-01-09T09:18:37.013Z,34.66
2024-01-09T09:19:36.937Z,34.48
2024-01-09T09:20:36.905Z,34.51
2024-01-09T09:21:36.886Z,34.55
2024-01-09T09:22:36.917Z,34.43
2024-01-09T09:23:36.955Z,34.54
2024-01-09T09:24:36.838Z,34.54
2024-01-09T09:25:36.862Z,34.47
2024-01-09T09:26:36.993Z,34.45
2024-01-09T09:27:36.828Z,34.42
2024-01-09T09:28:45.369Z,34.25
2024-01-09T09:29:39.231Z,34.47
2024-01-09T09:30:36.912Z,34.48
2024-01-09T09:31:36.803Z,34.54
2024-01-09T09:32:36.889Z,34.70
2024-01-09T09:33:36.920Z,34.71
2024-01-09T09:34:36.804Z,34.36
2024-01-09T09:35:36.786Z,34.47
2024-01-09T09:36:36.742Z,34.57
2024-01-09T09:37:36.726Z,34.50
2024-01-09T09:38:36.755Z,34.53
2024-01-09T09:39:36.718Z,34.54
2024-01-09T09:40:36.710Z,34.65
2024-01-09T09:41:36.753Z,34.70
2024-01-09T09:42:36.681Z,34.61
2024-01-09T09:43:36.688Z,34.73
2024-01-09T09:44:36.762Z,34.74
2024-01-09T09:45:36.677Z,34.31
2024-01-09T09:46:36.662Z,34.61
2024-01-09T09:47:36.706Z,34.59
2024-01-09T09:48:36.919Z,34.54
2024-01-09T09:49:36.654Z,34.45
2024-01-09T09:50:36.661Z,34.50
2024-01-09T09:51:36.612Z,34.68
2024-01-09T09:52:36.593Z,34.58
2024-01-09T09:53:36.617Z,34.55
2024-01-09T09:54:36.584Z,34.64
2024-01-09T09:55:36.587Z,34.39
2024-01-09T09:56:36.587Z,34.36
2024-01-09T09:57:36.573Z,34.32
2024-01-09T09:58:36.556Z,34.50
2024-01-09T09:59:36.565Z,34.60
2024-01-09T10:00:36.584Z,34.46
2024-01-09T10:01:36.526Z,34.59
2024-01-09T10:02:36.508Z,34.45
2024-01-09T10:03:36.531Z,34.38
2024-01-09T10:04:36.527Z,34.24
2024-01-09T10:05:36.594Z,34.48
2024-01-09T10:06:36.596Z,34.54
2024-01-09T10:07:36.462Z,34.41
2024-01-09T10:08:36.481Z,34.41
2024-01-09T10:09:36.466Z,34.47
2024-01-09T10:10:36.430Z,34.49
2024-01-09T10:11:36.469Z,34.37
2024-01-09T10:12:36.417Z,34.44
2024-01-09T10:13:36.422Z,34.41
2024-01-09T10:14:36.466Z,34.34
2024-01-09T10:15:36.417Z,34.54
2024-01-09T10:16:36.384Z,34.50
2024-01-09T10:17:36.453Z,34.50
2024-01-09T10:18:36.452Z,34.50
2024-01-09T10:19:36.386Z,34.52
2024-01-09T10:20:36.373Z,34.14
2024-01-09T10:21:36.358Z,34.12
2024-01-09T10:22:36.357Z,34.33
2024-01-09T10:23:36.404Z,34.43
2024-01-09T10:24:36.326Z,34.38
2024-01-09T10:25:36.322Z,34.31
2024-01-09T10:26:36.358Z,34.43
2024-01-09T10:27:36.306Z,34.36
2024-01-09T10:28:36.280Z,34.40
2024-01-09T10:29:36.295Z,34.47
2024-01-09T10:30:36.289Z,34.18
2024-01-09T10:31:36.274Z,34.11
2024-01-09T10:32:36.305Z,34.25
2024-01-09T10:33:36.531Z,34.20
2024-01-09T10:34:36.252Z,34.24
2024-01-09T10:35:36.236Z,34.09
2024-01-09T10:36:36.202Z,34.33
2024-01-09T10:37:36.223Z,34.32
2024-01-09T10:38:36.235Z,34.32
2024-01-09T10:39:36.185Z,34.28
2024-01-09T10:40:36.189Z,34.12
2024-01-09T10:41:36.234Z,34.19
2024-01-09T10:42:36.249Z,34.17
2024-01-09T10:43:36.149Z,34.25
2024-01-09T10:44:36.153Z,34.32
2024-01-09T10:45:36.122Z,34.20
2024-01-09T10:46:36.116Z,34.26
2024-01-09T10:47:36.185Z,34.22
2024-01-09T10:48:36.234Z,34.31
2024-01-09T10:49:36.122Z,34.24
2024-01-09T10:50:36.135Z,34.19
2024-01-09T10:51:36.069Z,34.19
2024-01-09T10:52:36.071Z,34.16
2024-01-09T10:53:36.147Z,34.09
2024-01-09T10:54:36.744Z,34.22
2024-01-09T10:55:36.057Z,34.22
2024-01-09T10:56:36.057Z,34.01
2024-01-09T10:57:36.071Z,34.13
2024-01-09T10:58:36.022Z,34.15
2024-01-09T10:59:36.040Z,33.87
2024-01-09T11:00:36.024Z,34.08
2024-01-09T11:01:36.006Z,34.04
2024-01-09T11:02:36.125Z,34.10
2024-01-09T11:03:36.080Z,33.87
2024-01-09T11:04:35.982Z,34.09
2024-01-09T11:05:36.028Z,34.04
2024-01-09T11:06:36.058Z,34.10
2024-01-09T11:07:35.939Z,34.01
2024-01-09T11:08:35.979Z,34.08
2024-01-09T11:09:35.917Z,34.09
2024-01-09T11:10:35.903Z,34.10
2024-01-09T11:11:35.947Z,34.09
2024-01-09T11:12:35.885Z,34.20
2024-01-09T11:13:35.882Z,34.12
2024-01-09T11:14:35.915Z,34.15
2024-01-09T11:15:35.865Z,34.03
2024-01-09T11:16:35.857Z,34.05
2024-01-09T11:17:35.880Z,34.10
2024-01-09T11:18:35.978Z,34.16
2024-01-09T11:19:35.864Z,34.16
2024-01-09T11:20:35.846Z,34.09
2024-01-09T11:21:35.832Z,34.00
2024-01-09T11:22:35.814Z,34.08
2024-01-09T11:23:35.816Z,34.04
2024-01-09T11:24:35.782Z,34.15
2024-01-09T11:25:35.799Z,34.19
2024-01-09T11:26:35.848Z,34.20
2024-01-09T11:27:35.810Z,34.13
2024-01-09T11:28:35.749Z,34.04
2024-01-09T11:29:35.770Z,34.12
2024-01-09T11:30:38.673Z,33.91
2024-01-09T11:31:35.726Z,33.97
2024-01-09T11:32:35.804Z,34.08
2024-01-09T11:33:36.076Z,34.15
2024-01-09T11:34:35.730Z,33.97
2024-01-09T11:35:35.765Z,34.03
2024-01-09T11:36:35.692Z,34.03
2024-01-09T11:37:35.669Z,34.03
2024-01-09T11:38:35.701Z,34.01
2024-01-09T11:39:35.653Z,34.02
2024-01-09T11:40:35.649Z,33.98
2024-01-09T11:41:35.788Z,33.89
2024-01-09T11:42:35.637Z,33.86
2024-01-09T11:43:35.624Z,33.95
2024-01-09T11:44:35.645Z,33.96
2024-01-09T11:45:35.601Z,34.01
2024-01-09T11:46:35.690Z,33.92
2024-01-09T11:47:35.704Z,33.99
2024-01-09T11:48:35.687Z,33.99
2024-01-09T11:49:35.728Z,33.93
2024-01-09T11:50:35.607Z,34.08
2024-01-09T11:51:35.852Z,34.94
2024-01-09T11:52:35.548Z,35.02
2024-01-09T11:53:35.572Z,34.92
2024-01-09T11:54:35.532Z,34.98
2024-01-09T11:55:35.531Z,34.81
2024-01-09T11:56:35.524Z,34.90
2024-01-09T11:57:35.499Z,34.93
2024-01-09T11:58:35.491Z,34.90
2024-01-09T11:59:35.514Z,34.93
2024-01-09T12:00:35.469Z,34.92
2024-01-09T12:01:35.468Z,35.03
2024-01-09T12:02:35.485Z,34.88
2024-01-09T12:03:35.447Z,34.88
2024-01-09T12:04:36.285Z,35.27
2024-01-09T12:05:35.539Z,35.02
2024-01-09T12:06:35.503Z,34.98
2024-01-09T12:07:35.402Z,34.98
2024-01-09T12:08:35.447Z,34.93
2024-01-09T12:09:35.619Z,35.01
2024-01-09T12:10:35.384Z,34.86
2024-01-09T12:11:35.409Z,35.17
2024-01-09T12:12:35.361Z,35.05
2024-01-09T12:13:35.358Z,34.92
2024-01-09T12:14:35.432Z,35.01
2024-01-09T12:15:35.484Z,35.01
2024-01-09T12:16:35.328Z,35.17
2024-01-09T12:17:35.421Z,35.31
2024-01-09T12:18:35.442Z,35.09
2024-01-09T12:19:35.340Z,35.31
2024-01-09T12:20:36.321Z,35.34
2024-01-09T12:21:35.650Z,35.36
2024-01-09T12:22:35.326Z,35.34
2024-01-09T12:23:48.727Z,35.38
2024-01-09T12:24:36.337Z,35.49
2024-01-09T12:25:35.254Z,35.28
2024-01-09T12:26:35.288Z,35.27
2024-01-09T12:27:35.271Z,35.31
2024-01-09T12:28:35.246Z,35.26
2024-01-09T12:29:35.654Z,35.40
2024-01-09T12:30:35.248Z,35.35
2024-01-09T12:31:35.291Z,35.36
2024-01-09T12:32:35.488Z,35.44
2024-01-09T12:33:35.589Z,35.57
2024-01-09T12:34:35.292Z,35.47
2024-01-09T12:35:35.178Z,35.68
2024-01-09T12:36:35.215Z,35.65
2024-01-09T12:37:35.136Z,35.36
2024-01-09T12:38:35.161Z,35.25
2024-01-09T12:39:35.139Z,35.01
2024-01-09T12:40:35.133Z,35.09
2024-01-09T12:41:35.143Z,34.97
2024-01-09T12:42:35.123Z,35.06
2024-01-09T12:43:35.082Z,34.98
2024-01-09T12:44:35.102Z,34.96
2024-01-09T12:45:35.077Z,35.10
2024-01-09T12:46:35.077Z,35.06
2024-01-09T12:47:35.144Z,35.11
2024-01-09T12:48:35.190Z,35.02
2024-01-09T12:49:36.014Z,35.03
2024-01-09T12:50:35.152Z,35.00
2024-01-09T12:51:35.027Z,34.97
2024-01-09T12:52:35.009Z,35.00